Time;durP1;ratioP1;P1;durP2;ratioP2;P2;SDS_P1;SDS_P2;PMS_P1;PMS_P2;Temp;Humidity;BMP_temperature;BMP_pressure;BME280_temperature;BME280_humidity;BME280_pressure;Samples;Min_cycle;Max_cycle;Signal;HPM_P1;HPM_P2
2021/03/01 00:01:52;;;;;;;10.48;7.22;;;4.90;76.40;;;;;;5021953;28;20040;-54
2021/03/01 00:04:18;;;;;;;11.80;7.75;;;5.00;76.30;;;;;;5032781;28;20053;-55
2021/03/01 00:06:44;;;;;;;12.30;7.50;;;5.00;76.30;;;;;;5028518;28;20056;-57
2021/03/01 00:09:09;;;;;;;12.00;8.07;;;5.00;76.30;;;;;;5033593;28;20079;-54
2021/03/01 00:11:35;;;;;;;11.52;8.15;;;5.00;76.30;;;;;;5033539;28;20385;-57
2021/03/01 00:14:01;;;;;;;12.48;8.88;;;5.00;76.20;;;;;;5033514;28;20109;-52
2021/03/01 00:16:27;;;;;;;13.80;9.70;;;5.00;76.20;;;;;;5033540;28;20089;-52
2021/03/01 00:18:53;;;;;;;12.40;8.60;;;5.10;76.40;;;;;;5033424;28;20481;-57
2021/03/01 00:21:19;;;;;;;15.23;9.55;;;5.10;76.20;;;;;;5033680;28;20393;-55
2021/03/01 00:23:48;;;;;;;13.45;8.40;;;5.10;76.40;;;;;;5033509;28;20057;-54
2021/03/01 00:26:14;;;;;;;14.15;8.80;;;5.10;76.20;;;;;;5016394;28;20044;-55
2021/03/01 00:28:41;;;;;;;13.38;7.97;;;5.10;76.50;;;;;;5013636;28;20390;-55
2021/03/01 00:31:06;;;;;;;10.82;7.78;;;5.10;76.30;;;;;;5013558;28;20114;-56
2021/03/01 00:33:32;;;;;;;12.98;8.68;;;5.10;76.50;;;;;;5013847;28;20061;-56
2021/03/01 00:35:58;;;;;;;12.77;8.40;;;5.10;76.50;;;;;;5020981;28;20469;-56
2021/03/01 00:38:24;;;;;;;11.27;8.00;;;5.10;76.60;;;;;;5033179;28;20112;-55
2021/03/01 00:40:49;;;;;;;11.23;7.80;;;5.10;76.40;;;;;;5033290;28;20108;-56
2021/03/01 00:43:15;;;;;;;12.70;8.57;;;5.10;76.30;;;;;;5033299;28;20473;-53
2021/03/01 00:45:41;;;;;;;11.77;7.78;;;5.10;76.40;;;;;;5033258;28;20079;-56
2021/03/01 00:48:07;;;;;;;10.60;7.45;;;5.10;76.40;;;;;;5032979;28;20061;-55
2021/03/01 00:50:32;;;;;;;9.05;6.55;;;5.10;76.60;;;;;;5033141;28;20033;-53
2021/03/01 00:52:58;;;;;;;9.23;6.75;;;5.10;76.60;;;;;;5033186;28;20025;-56
2021/03/01 00:55:24;;;;;;;7.40;5.60;;;5.10;76.40;;;;;;5020099;28;20033;-52
2021/03/01 00:57:49;;;;;;;9.50;6.22;;;5.10;76.50;;;;;;5013289;28;20034;-54
2021/03/01 01:00:17;;;;;;;8.30;6.53;;;5.10;76.60;;;;;;5013284;28;20030;-54
2021/03/01 01:02:43;;;;;;;9.80;6.70;;;5.10;76.20;;;;;;5027773;28;20084;-55
2021/03/01 01:05:10;;;;;;;9.90;6.75;;;5.10;76.30;;;;;;5033037;28;20052;-56
2021/03/01 01:07:35;;;;;;;8.80;7.00;;;5.10;76.40;;;;;;5033064;28;20099;-57
2021/03/01 01:10:04;;;;;;;9.02;6.72;;;5.10;76.40;;;;;;5033118;28;20488;-55
2021/03/01 01:12:29;;;;;;;8.88;6.47;;;5.10;76.50;;;;;;5032907;28;20026;-54
2021/03/01 01:14:55;;;;;;;10.90;6.80;;;5.10;76.40;;;;;;5032969;28;20029;-57
2021/03/01 01:17:21;;;;;;;7.97;6.13;;;5.10;76.60;;;;;;5036658;28;20036;-56
2021/03/01 01:19:46;;;;;;;6.40;5.38;;;5.10;76.60;;;;;;5036651;28;20029;-56
2021/03/01 01:22:12;;;;;;;7.03;5.63;;;5.10;76.60;;;;;;5036591;28;20075;-56
2021/03/01 01:24:38;;;;;;;8.18;5.55;;;5.10;76.50;;;;;;5035429;28;20376;-54
2021/03/01 01:27:04;;;;;;;6.88;5.25;;;5.10;76.80;;;;;;5034999;28;20026;-56
2021/03/01 01:29:29;;;;;;;7.43;5.57;;;5.10;76.90;;;;;;5036444;28;20029;-54
2021/03/01 01:31:55;;;;;;;7.40;5.68;;;5.10;76.70;;;;;;5036393;28;20061;-54
2021/03/01 01:34:20;;;;;;;8.43;5.97;;;5.00;76.50;;;;;;5036597;28;20021;-56
2021/03/01 01:36:46;;;;;;;8.40;6.10;;;5.00;76.60;;;;;;5022143;28;20026;-55
2021/03/01 01:39:12;;;;;;;7.95;6.43;;;5.00;76.70;;;;;;5016722;28;20076;-56
2021/03/01 01:41:37;;;;;;;8.13;5.72;;;5.00;76.70;;;;;;5016556;28;20455;-54
2021/03/01 01:44:03;;;;;;;7.03;5.53;;;5.00;76.60;;;;;;5016498;28;20122;-57
2021/03/01 01:46:29;;;;;;;8.48;5.78;;;5.00;76.70;;;;;;5016373;28;20033;-54
2021/03/01 01:48:55;;;;;;;8.90;5.63;;;5.00;76.70;;;;;;5016239;28;20096;-53
2021/03/01 01:51:21;;;;;;;6.65;5.22;;;4.90;76.70;;;;;;5015014;28;20088;-57
2021/03/01 01:53:47;;;;;;;5.22;4.38;;;4.90;76.90;;;;;;5016909;28;20033;-57
2021/03/01 01:56:13;;;;;;;6.35;4.75;;;4.90;77.00;;;;;;5035976;28;20534;-53
2021/03/01 01:58:38;;;;;;;5.13;4.47;;;4.90;77.00;;;;;;5035885;28;20022;-55
2021/03/01 02:01:05;;;;;;;5.68;4.68;;;4.90;77.00;;;;;;5035866;28;20380;-54
2021/03/01 02:03:49;;;;;;;5.90;4.82;;;4.80;77.10;;;;;;5035191;28;20037;-57
2021/03/01 02:06:36;;;;;;;5.68;4.60;;;4.80;77.10;;;;;;5025630;28;20026;-54
2021/03/01 02:09:16;;;;;;;5.85;4.90;;;4.80;77.30;;;;;;5034082;28;20477;-55
2021/03/01 02:11:54;;;;;;;6.10;4.78;;;4.80;77.30;;;;;;5035971;28;20036;-56
2021/03/01 02:14:32;;;;;;;6.13;4.72;;;4.80;77.40;;;;;;5035756;28;20036;-54
2021/03/01 02:16:58;;;;;;;6.70;5.20;;;4.80;77.50;;;;;;5035961;28;20461;-52
2021/03/01 02:19:25;;;;;;;8.13;5.53;;;4.80;77.60;;;;;;5035584;28;20056;-56
2021/03/01 02:21:51;;;;;;;7.40;5.28;;;4.80;77.60;;;;;;5035485;28;20041;-56
2021/03/01 02:24:22;;;;;;;7.00;5.32;;;4.80;77.60;;;;;;5030403;28;20022;-52
2021/03/01 02:26:50;;;;;;;;;;;4.80;77.70;;;;;;5015729;28;20026;-54
2021/03/01 02:29:20;;;;;;;6.88;5.43;;;4.70;77.30;;;;;;5015457;28;20442;-53
2021/03/01 02:31:47;;;;;;;6.65;5.03;;;4.70;77.70;;;;;;5015538;28;20075;-57
2021/03/01 02:34:16;;;;;;;8.02;5.82;;;4.70;77.80;;;;;;5015584;28;20104;-56
2021/03/01 02:36:50;;;;;;;7.63;5.68;;;4.70;77.80;;;;;;5029208;28;20032;-55
2021/03/01 02:39:19;;;;;;;7.18;5.32;;;4.70;77.90;;;;;;5035482;28;20424;-54
2021/03/01 02:41:46;;;;;;;8.23;5.05;;;4.70;77.80;;;;;;5035168;28;20040;-56
2021/03/01 02:44:12;;;;;;;6.68;5.22;;;4.70;78.10;;;;;;5035147;28;20388;-53
2021/03/01 02:46:38;;;;;;;7.72;5.20;;;4.70;78.00;;;;;;5035339;28;20025;-56
2021/03/01 02:49:07;;;;;;;7.00;5.57;;;4.70;78.00;;;;;;5034860;28;20408;-55
2021/03/01 02:51:36;;;;;;;6.18;5.13;;;4.70;77.90;;;;;;5034875;28;20034;-56
2021/03/01 02:54:03;;;;;;;7.50;6.03;;;4.70;77.90;;;;;;5034117;28;20132;-53
2021/03/01 02:56:30;;;;;;;7.25;5.53;;;4.70;78.00;;;;;;5034762;28;20064;-56
2021/03/01 02:58:58;;;;;;;6.78;5.05;;;4.70;78.00;;;;;;5034743;28;20029;-53
2021/03/01 03:01:25;;;;;;;7.95;5.97;;;4.70;78.00;;;;;;5034787;28;20040;-52
2021/03/01 03:03:52;;;;;;;6.85;5.10;;;4.70;78.20;;;;;;5034389;28;20477;-54
2021/03/01 03:06:21;;;;;;;8.68;5.80;;;4.70;78.20;;;;;;5034591;28;20079;-56
2021/03/01 03:08:49;;;;;;;8.02;6.20;;;4.70;78.30;;;;;;5034018;28;20025;-52
2021/03/01 03:11:18;;;;;;;8.63;5.88;;;4.70;78.10;;;;;;5033544;28;20469;-57
2021/03/01 03:13:49;;;;;;;8.00;5.70;;;4.70;78.20;;;;;;5032679;28;20120;-54
2021/03/01 03:16:17;;;;;;;8.23;5.68;;;4.70;78.20;;;;;;5034011;28;20029;-55
2021/03/01 03:18:44;;;;;;;9.07;6.05;;;4.60;78.20;;;;;;5033190;28;20029;-56
2021/03/01 03:21:12;;;;;;;8.80;6.40;;;4.70;78.50;;;;;;5034297;28;20029;-55
2021/03/01 03:23:38;;;;;;;7.88;6.10;;;4.70;78.40;;;;;;5032077;28;20075;-56
2021/03/01 03:26:03;;;;;;;9.30;6.78;;;4.70;78.50;;;;;;5033863;28;20057;-55
2021/03/01 03:28:29;;;;;;;8.57;5.97;;;4.70;78.40;;;;;;5033775;28;20021;-56
2021/03/01 03:30:55;;;;;;;9.85;6.50;;;4.70;78.40;;;;;;5034055;28;20037;-55
2021/03/01 03:33:21;;;;;;;10.07;6.57;;;4.70;78.60;;;;;;5034125;28;20436;-52
2021/03/01 03:35:46;;;;;;;9.30;6.65;;;4.60;78.40;;;;;;5027177;28;20096;-53
2021/03/01 03:38:15;;;;;;;8.18;6.55;;;4.60;78.60;;;;;;5014287;28;20026;-55
2021/03/01 03:40:44;;;;;;;11.57;7.03;;;4.60;78.60;;;;;;5014327;28;20026;-56
2021/03/01 03:43:13;;;;;;;7.80;6.00;;;4.60;78.50;;;;;;5014321;28;20088;-55
2021/03/01 03:45:40;;;;;;;9.40;6.35;;;4.70;78.50;;;;;;5014052;28;20018;-55
2021/03/01 03:48:07;;;;;;;8.70;6.35;;;4.60;78.60;;;;;;5014164;28;20053;-56
2021/03/01 03:50:34;;;;;;;10.13;6.50;;;4.60;78.70;;;;;;5014067;28;20452;-54
2021/03/01 03:53:08;;;;;;;8.52;6.15;;;4.60;78.80;;;;;;5014115;28;20026;-55
2021/03/01 03:55:35;;;;;;;9.07;6.35;;;4.60;78.70;;;;;;5031159;28;20029;-56
2021/03/01 03:58:05;;;;;;;8.35;5.70;;;4.60;78.80;;;;;;5033669;28;20044;-56
2021/03/01 04:00:33;;;;;;;9.43;5.90;;;4.60;79.10;;;;;;5033577;28;20324;-55
2021/03/01 04:03:04;;;;;;;7.18;6.07;;;4.60;79.00;;;;;;5033732;28;20036;-54
2021/03/01 04:05:31;;;;;;;8.73;6.22;;;4.60;78.90;;;;;;5033675;28;20069;-53
2021/03/01 04:07:58;;;;;;;8.05;5.85;;;4.60;79.10;;;;;;5024158;28;20446;-54
2021/03/01 04:10:26;;;;;;;10.00;6.93;;;4.60;79.10;;;;;;5013801;28;20022;-56
2021/03/01 04:12:53;;;;;;;7.55;6.28;;;4.60;78.90;;;;;;5014036;28;20469;-56
2021/03/01 04:15:20;;;;;;;8.07;6.15;;;4.60;79.10;;;;;;5014055;28;20030;-54
2021/03/01 04:17:47;;;;;;;9.32;6.47;;;4.60;79.10;;;;;;5014055;28;20057;-56
2021/03/01 04:20:17;;;;;;;11.30;7.25;;;4.60;79.10;;;;;;5013722;28;20026;-56
2021/03/01 04:22:44;;;;;;;10.25;7.05;;;4.60;79.30;;;;;;5013730;28;20528;-55
2021/03/01 04:25:10;;;;;;;9.60;6.57;;;4.60;79.30;;;;;;5013658;28;20033;-55
2021/03/01 04:27:38;;;;;;;10.45;6.93;;;4.60;79.20;;;;;;5013659;28;20049;-56
2021/03/01 04:30:08;;;;;;;8.25;6.80;;;4.60;79.20;;;;;;5013494;28;20123;-56
2021/03/01 04:32:37;;;;;;;12.60;7.18;;;4.60;79.20;;;;;;5013461;28;20057;-53
2021/03/01 04:35:05;;;;;;;10.02;7.15;;;4.70;79.40;;;;;;5013617;28;20090;-55
2021/03/01 04:37:31;;;;;;;11.13;6.97;;;4.70;79.30;;;;;;5013569;28;20033;-54
2021/03/01 04:39:57;;;;;;;13.23;8.35;;;4.70;79.40;;;;;;5013619;28;20030;-52
2021/03/01 04:42:24;;;;;;;11.30;7.85;;;4.70;79.20;;;;;;5013532;28;20421;-53
2021/03/01 04:44:50;;;;;;;14.45;8.27;;;4.70;79.20;;;;;;5013510;28;20385;-52
2021/03/01 04:47:17;;;;;;;10.23;7.13;;;4.70;79.20;;;;;;5013325;28;20101;-53
2021/03/01 04:49:44;;;;;;;13.65;7.95;;;4.70;79.20;;;;;;5013826;28;20029;-53
2021/03/01 04:52:13;;;;;;;14.30;7.70;;;4.70;79.00;;;;;;5016809;28;20088;-55
2021/03/01 04:54:41;;;;;;;11.55;7.78;;;4.70;79.00;;;;;;5028594;28;20481;-55
2021/03/01 04:57:08;;;;;;;13.68;7.72;;;4.70;79.20;;;;;;5032273;28;20017;-57
2021/03/01 04:59:34;;;;;;;13.75;8.40;;;4.70;79.00;;;;;;5037001;28;20422;-54
2021/03/01 05:02:00;;;;;;;11.85;8.52;;;4.70;79.10;;;;;;5036616;28;20072;-55
2021/03/01 05:04:26;;;;;;;13.68;8.90;;;4.70;79.40;;;;;;5036944;28;20029;-57
2021/03/01 05:06:56;;;;;;;14.77;8.88;;;4.70;79.40;;;;;;5036828;28;20026;-56
2021/03/01 05:09:22;;;;;;;13.43;9.07;;;4.70;79.40;;;;;;5020541;28;20041;-52
2021/03/01 05:11:48;;;;;;;16.52;9.40;;;4.80;79.60;;;;;;5017116;28;20445;-56
2021/03/01 05:14:14;;;;;;;15.82;9.55;;;4.80;79.50;;;;;;5017409;28;20097;-56
2021/03/01 05:16:40;;;;;;;14.38;9.32;;;4.80;79.60;;;;;;5016977;28;20054;-55
2021/03/01 05:19:06;;;;;;;13.68;8.95;;;4.80;79.40;;;;;;5016946;28;20050;-55
2021/03/01 05:21:32;;;;;;;15.13;9.63;;;4.80;79.20;;;;;;5031021;28;20116;-56
2021/03/01 05:23:57;;;;;;;14.13;9.50;;;4.80;79.20;;;;;;5035788;28;20034;-53
2021/03/01 05:26:23;;;;;;;14.77;9.45;;;4.80;79.20;;;;;;5036451;28;20029;-56
2021/03/01 05:28:49;;;;;;;14.77;9.65;;;4.80;79.40;;;;;;5036370;28;20377;-53
2021/03/01 05:31:15;;;;;;;17.02;10.07;;;4.80;79.20;;;;;;5036424;28;20078;-54
2021/03/01 05:33:42;;;;;;;14.73;8.98;;;4.90;79.40;;;;;;5034604;28;20026;-56
2021/03/01 05:36:08;;;;;;;14.27;9.18;;;4.90;79.30;;;;;;5027166;28;20100;-53
2021/03/01 05:38:34;;;;;;;13.85;8.90;;;4.90;79.30;;;;;;5016811;28;20044;-54
2021/03/01 05:41:02;;;;;;;15.80;9.77;;;4.90;79.30;;;;;;5016411;28;20038;-55
2021/03/01 05:43:29;;;;;;;15.00;9.73;;;4.90;79.20;;;;;;5016747;28;20033;-56
2021/03/01 05:45:58;;;;;;;15.20;9.07;;;4.90;79.20;;;;;;5016474;28;20036;-52
2021/03/01 05:48:26;;;;;;;16.45;9.45;;;4.90;79.20;;;;;;5016268;28;20062;-54
2021/03/01 05:50:58;;;;;;;14.25;9.10;;;4.90;79.20;;;;;;5016147;28;20026;-53
2021/03/01 05:53:43;;;;;;;14.73;9.35;;;4.90;79.10;;;;;;5016418;28;20492;-53
2021/03/01 05:56:10;;;;;;;13.93;8.27;;;4.90;79.00;;;;;;5016245;28;20026;-56
2021/03/01 05:58:36;;;;;;;12.45;8.45;;;4.90;79.10;;;;;;5016197;28;20018;-57
2021/03/01 06:01:06;;;;;;;12.40;8.05;;;4.90;79.00;;;;;;5026263;28;20064;-53
2021/03/01 06:03:33;;;;;;;13.93;8.25;;;4.90;79.30;;;;;;5033348;28;20029;-54
2021/03/01 06:05:59;;;;;;;11.95;7.90;;;4.90;79.10;;;;;;5035767;28;20033;-55
2021/03/01 06:08:25;;;;;;;14.07;7.80;;;5.00;79.00;;;;;;5030632;28;20040;-56
2021/03/01 06:10:57;;;;;;;12.40;8.30;;;5.00;79.20;;;;;;5015947;28;20034;-53
2021/03/01 06:13:23;;;;;;;;;;;5.00;79.20;;;;;;5016401;28;20022;-54
2021/03/01 06:15:51;;;;;;;10.20;6.57;;;5.00;79.10;;;;;;5015844;28;20377;-55
2021/03/01 06:18:17;;;;;;;12.75;7.53;;;5.00;79.30;;;;;;5015853;28;20028;-56
2021/03/01 06:20:43;;;;;;;12.75;7.72;;;5.10;79.30;;;;;;5015836;28;20105;-57
2021/03/01 06:23:09;;;;;;;12.93;7.97;;;5.10;79.10;;;;;;5016381;28;20033;-55
2021/03/01 06:25:35;;;;;;;12.90;7.78;;;5.10;79.00;;;;;;5035778;28;20025;-56
2021/03/01 06:28:06;;;;;;;9.48;6.95;;;5.20;79.00;;;;;;5035437;28;20022;-53
2021/03/01 06:30:39;;;;;;;11.63;7.75;;;5.20;78.90;;;;;;5035320;28;20113;-56
2021/03/01 06:33:11;;;;;;;11.25;7.05;;;5.20;79.00;;;;;;5035274;28;20045;-53
2021/03/01 06:35:37;;;;;;;10.63;7.35;;;5.30;78.80;;;;;;5027395;28;20026;-58
2021/03/01 06:38:19;;;;;;;11.38;7.43;;;5.30;78.70;;;;;;5018313;28;20033;-56
2021/03/01 06:40:45;;;;;;;;;;;5.30;78.50;;;;;;5021725;28;20030;-53
2021/03/01 06:43:16;;;;;;;9.40;6.65;;;5.20;78.30;;;;;;5014196;28;20350;-55
2021/03/01 06:45:42;;;;;;;10.35;6.82;;;5.20;78.50;;;;;;5019046;28;20049;-52
2021/03/01 06:48:09;;;;;;;10.25;6.78;;;5.30;78.80;;;;;;5015290;28;20508;-56
2021/03/01 06:50:46;;;;;;;11.15;6.32;;;5.30;78.70;;;;;;5020078;28;20030;-56
2021/03/01 06:53:12;;;;;;;9.13;6.35;;;5.40;78.50;;;;;;5021094;28;20029;-52
2021/03/01 06:55:38;;;;;;;10.25;7.20;;;5.40;78.50;;;;;;5019897;28;20137;-52
2021/03/01 06:58:18;;;;;;;11.07;7.50;;;5.40;78.50;;;;;;5018493;28;20022;-56
2021/03/01 07:00:45;;;;;;;10.27;6.97;;;5.40;78.20;;;;;;5017030;28;20077;-52
2021/03/01 07:03:23;;;;;;;12.40;8.20;;;5.50;78.30;;;;;;5010866;28;20026;-54
2021/03/01 07:05:51;;;;;;;13.82;9.65;;;5.50;78.10;;;;;;5014187;28;20068;-53
2021/03/01 07:08:35;;;;;;;12.60;8.40;;;5.50;78.30;;;;;;5021055;28;20500;-53
2021/03/01 07:11:03;;;;;;;10.63;7.43;;;5.50;78.00;;;;;;5021454;28;20495;-52
2021/03/01 07:13:32;;;;;;;11.98;7.97;;;5.50;78.00;;;;;;5017205;28;20037;-55
2021/03/01 07:16:16;;;;;;;10.75;7.45;;;5.50;77.90;;;;;;5018438;28;20036;-54
2021/03/01 07:18:43;;;;;;;10.63;6.90;;;5.50;77.70;;;;;;5015349;28;20060;-56
2021/03/01 07:21:14;;;;;;;11.15;6.45;;;5.50;77.80;;;;;;5016807;28;20029;-53
2021/03/01 07:23:41;;;;;;;;;;;5.50;77.60;;;;;;5019981;28;20037;-56
2021/03/01 07:26:10;;;;;;;9.20;6.65;;;5.50;77.70;;;;;;5018349;28;20386;-55
2021/03/01 07:28:40;;;;;;;10.18;6.72;;;5.50;77.90;;;;;;5013072;28;20040;-55
2021/03/01 07:31:07;;;;;;;9.35;6.75;;;5.50;77.90;;;;;;5018322;28;20083;-55
2021/03/01 07:33:34;;;;;;;10.15;6.72;;;5.50;77.80;;;;;;5022534;28;21487;-56
2021/03/01 07:36:01;;;;;;;9.07;6.68;;;5.50;77.80;;;;;;5013440;28;20049;-55
2021/03/01 07:38:27;;;;;;;8.50;6.57;;;5.50;77.80;;;;;;5015782;28;20123;-54
2021/03/01 07:40:55;;;;;;;11.45;6.63;;;5.50;77.80;;;;;;5021387;28;20022;-55
2021/03/01 07:43:23;;;;;;;11.07;7.60;;;5.50;77.80;;;;;;5013880;28;20084;-55
2021/03/01 07:45:50;;;;;;;10.77;6.93;;;5.50;77.60;;;;;;5008999;28;20030;-54
2021/03/01 07:48:17;;;;;;;9.05;6.28;;;5.50;77.60;;;;;;5009265;28;20099;-52
2021/03/01 07:50:47;;;;;;;9.63;6.32;;;5.50;77.40;;;;;;5012521;28;20038;-52
2021/03/01 07:53:50;;;;;;;8.30;6.10;;;5.50;77.40;;;;;;5011451;28;20045;-53
2021/03/01 07:56:23;;;;;;;8.15;6.00;;;5.50;77.20;;;;;;5005103;28;20099;-54
2021/03/01 07:58:54;;;;;;;;;;;5.50;77.30;;;;;;5011190;28;20025;-52
2021/03/01 08:01:20;;;;;;;7.05;5.25;;;5.40;77.20;;;;;;5006534;28;19917;-51
2021/03/01 08:03:46;;;;;;;8.63;6.00;;;5.40;77.40;;;;;;4998977;28;20038;-53
2021/03/01 08:06:12;;;;;;;8.57;5.53;;;5.50;77.60;;;;;;5002423;28;20037;-53
2021/03/01 08:08:45;;;;;;;9.30;6.28;;;5.50;77.50;;;;;;5003091;28;20049;-55
2021/03/01 08:11:12;;;;;;;8.23;5.57;;;5.50;77.50;;;;;;5009639;28;20795;-56
2021/03/01 08:13:38;;;;;;;7.47;5.95;;;5.50;77.50;;;;;;5008999;28;20037;-56
2021/03/01 08:16:23;;;;;;;8.82;5.53;;;5.60;77.80;;;;;;5008585;28;20029;-53
2021/03/01 08:18:59;;;;;;;10.05;5.82;;;5.60;77.00;;;;;;5012873;28;20270;-54
2021/03/01 08:21:25;;;;;;;7.45;5.43;;;5.60;77.20;;;;;;5007868;28;20416;-55
2021/03/01 08:23:51;;;;;;;9.63;5.97;;;5.60;77.10;;;;;;5016496;28;20120;-55
2021/03/01 08:26:43;;;;;;;7.97;5.78;;;5.60;77.10;;;;;;5014133;28;20037;-56
2021/03/01 08:29:16;;;;;;;;;;;5.60;76.90;;;;;;5015161;28;20056;-54
2021/03/01 08:31:42;;;;;;;8.77;5.85;;;5.50;76.90;;;;;;5007224;28;19916;-53
2021/03/01 08:34:37;;;;;;;8.00;5.97;;;5.60;77.20;;;;;;5006373;28;20060;-52
2021/03/01 08:37:05;;;;;;;9.02;6.75;;;5.60;77.00;;;;;;5011515;28;20485;-55
2021/03/01 08:39:53;;;;;;;9.90;7.13;;;5.60;77.10;;;;;;5005670;28;20026;-55
2021/03/01 08:42:45;;;;;;;7.95;5.70;;;5.70;76.90;;;;;;5008322;28;20041;-56
2021/03/01 08:45:11;;;;;;;7.07;5.47;;;5.70;76.90;;;;;;5011504;28;20049;-55
2021/03/01 08:47:48;;;;;;;7.82;5.75;;;5.70;76.90;;;;;;5008140;28;20171;-55
2021/03/01 08:50:14;;;;;;;8.70;5.88;;;5.80;76.80;;;;;;5005752;28;20030;-53
2021/03/01 08:52:47;;;;;;;9.38;6.43;;;5.80;77.40;;;;;;5010051;28;20026;-56
2021/03/01 08:55:14;;;;;;;8.35;6.05;;;5.80;76.80;;;;;;5008334;28;20848;-54
2021/03/01 08:58:07;;;;;;;7.15;5.55;;;5.80;76.60;;;;;;5009734;28;20036;-55
2021/03/01 09:00:35;;;;;;;8.73;6.13;;;5.90;76.50;;;;;;5013373;28;20384;-55
2021/03/01 09:03:12;;;;;;;7.75;5.63;;;5.90;76.50;;;;;;5009999;28;20088;-56
2021/03/01 09:05:38;;;;;;;7.25;5.35;;;5.90;76.40;;;;;;5008757;28;20057;-52
2021/03/01 09:08:05;;;;;;;6.95;5.30;;;6.00;76.30;;;;;;5010007;28;20037;-53
2021/03/01 09:10:40;;;;;;;7.43;5.70;;;6.00;76.30;;;;;;5014924;28;20088;-55
2021/03/01 09:13:08;;;;;;;6.95;5.22;;;6.00;76.00;;;;;;5015529;28;20359;-56
2021/03/01 09:15:34;;;;;;;6.43;5.13;;;6.00;76.20;;;;;;5011563;28;20109;-54
2021/03/01 09:17:59;;;;;;;9.10;5.63;;;6.10;75.90;;;;;;5011179;28;20117;-54
2021/03/01 09:20:25;;;;;;;7.35;5.05;;;6.10;75.80;;;;;;5004328;28;20964;-56
2021/03/01 09:22:51;;;;;;;6.47;5.13;;;6.10;75.80;;;;;;5012197;28;20072;-55
2021/03/01 09:25:30;;;;;;;7.68;5.97;;;6.10;75.80;;;;;;5003761;28;20120;-55
2021/03/01 09:27:57;;;;;;;6.30;5.10;;;6.20;75.70;;;;;;5007884;28;20092;-55
2021/03/01 09:30:23;;;;;;;7.22;6.03;;;6.30;75.40;;;;;;5011018;28;20033;-52
2021/03/01 09:32:56;;;;;;;6.80;5.07;;;6.30;75.30;;;;;;5005708;28;21531;-55
2021/03/01 09:35:22;;;;;;;8.00;5.55;;;6.30;75.30;;;;;;5010578;28;20103;-55
2021/03/01 09:37:48;;;;;;;6.97;6.18;;;6.40;75.20;;;;;;5015250;28;20106;-54
2021/03/01 09:40:19;;;;;;;8.85;6.25;;;6.40;75.20;;;;;;5010898;28;20045;-51
2021/03/01 09:42:53;;;;;;;8.57;6.07;;;6.50;75.20;;;;;;5019632;28;20033;-55
2021/03/01 09:45:21;;;;;;;10.63;7.10;;;6.50;75.10;;;;;;5012280;28;20408;-53
2021/03/01 09:47:49;;;;;;;9.77;6.40;;;6.50;74.90;;;;;;5014680;28;20290;-54
2021/03/01 09:50:16;;;;;;;9.48;7.30;;;6.60;75.00;;;;;;5008941;28;20033;-51
2021/03/01 09:52:44;;;;;;;10.65;7.28;;;6.60;75.00;;;;;;5011464;28;20033;-55
2021/03/01 09:55:10;;;;;;;8.93;7.13;;;6.70;74.70;;;;;;5004892;28;20033;-54
2021/03/01 09:57:36;;;;;;;11.45;7.90;;;6.70;74.60;;;;;;5010820;28;20076;-55
2021/03/01 10:00:24;;;;;;;10.80;7.60;;;6.80;74.30;;;;;;5014639;28;20029;-55
2021/03/01 10:02:57;;;;;;;8.15;6.55;;;6.80;73.90;;;;;;5011041;28;20030;-56
2021/03/01 10:05:23;;;;;;;8.75;6.95;;;6.80;74.00;;;;;;5011858;28;20410;-55
2021/03/01 10:07:59;;;;;;;8.75;6.75;;;6.90;74.00;;;;;;5016681;28;20045;-54
2021/03/01 10:10:37;;;;;;;8.80;6.28;;;6.90;73.90;;;;;;5009179;28;20041;-56
2021/03/01 10:13:03;;;;;;;7.63;6.28;;;6.90;73.80;;;;;;5010012;28;20021;-56
2021/03/01 10:15:40;;;;;;;7.25;5.70;;;6.90;73.90;;;;;;5013739;28;20114;-56
2021/03/01 10:18:08;;;;;;;8.18;6.43;;;6.90;73.60;;;;;;5006036;28;20025;-54
2021/03/01 10:20:49;;;;;;;8.98;6.30;;;6.90;73.60;;;;;;5007876;28;20034;-54
2021/03/01 10:23:30;;;;;;;7.97;6.53;;;6.90;73.30;;;;;;5009361;28;20580;-56
2021/03/01 10:26:15;;;;;;;8.25;6.07;;;7.00;73.40;;;;;;5010999;28;20067;-55
2021/03/01 10:28:42;;;;;;;9.20;6.32;;;7.00;73.20;;;;;;5007600;28;20034;-54
2021/03/01 10:31:14;;;;;;;7.38;5.80;;;7.00;73.00;;;;;;5008756;28;20025;-55
2021/03/01 10:33:59;;;;;;;8.18;6.32;;;7.00;72.80;;;;;;5009610;28;20488;-54
2021/03/01 10:36:29;;;;;;;6.75;5.32;;;7.10;72.80;;;;;;5011382;28;20018;-55
2021/03/01 10:39:02;;;;;;;7.43;5.47;;;7.10;72.80;;;;;;5008131;28;20037;-56
2021/03/01 10:41:31;;;;;;;7.05;5.40;;;7.10;72.60;;;;;;5003942;28;20480;-55
2021/03/01 10:44:06;;;;;;;6.60;5.18;;;7.10;72.50;;;;;;4999344;28;20084;-56
2021/03/01 10:47:11;;;;;;;6.53;5.53;;;7.20;72.50;;;;;;5007353;28;20038;-56
2021/03/01 10:49:37;;;;;;;6.85;5.50;;;7.20;72.80;;;;;;5010967;28;23502;-56
2021/03/01 10:52:07;;;;;;;7.53;5.60;;;7.10;72.30;;;;;;5007766;28;20030;-54
2021/03/01 10:54:33;;;;;;;7.05;5.60;;;7.10;72.20;;;;;;5010368;28;20113;-55
2021/03/01 10:56:59;;;;;;;6.78;5.50;;;7.10;72.20;;;;;;5013851;28;20025;-55
2021/03/01 10:59:24;;;;;;;5.78;5.00;;;7.10;72.20;;;;;;5000060;28;20131;-54
2021/03/01 11:01:50;;;;;;;6.47;4.93;;;7.10;71.90;;;;;;5003691;28;20037;-54
2021/03/01 11:04:17;;;;;;;5.80;5.13;;;7.10;71.90;;;;;;5019731;28;20068;-53
2021/03/01 11:06:48;;;;;;;5.80;4.93;;;7.10;71.70;;;;;;5006545;28;20025;-54
2021/03/01 11:09:15;;;;;;;5.13;4.50;;;7.10;71.70;;;;;;5011749;28;20025;-53
2021/03/01 11:11:42;;;;;;;8.18;5.15;;;7.10;71.70;;;;;;5005747;28;20057;-54
2021/03/01 11:14:10;;;;;;;5.10;4.57;;;7.10;71.60;;;;;;5008772;28;20030;-54
2021/03/01 11:16:36;;;;;;;6.43;4.60;;;7.10;71.60;;;;;;5006901;28;20029;-55
2021/03/01 11:19:03;;;;;;;6.35;4.93;;;7.10;71.50;;;;;;5008998;28;20067;-54
2021/03/01 11:21:29;;;;;;;6.35;5.07;;;7.00;71.30;;;;;;5009941;28;20037;-55
2021/03/01 11:23:55;;;;;;;6.28;5.18;;;7.10;71.40;;;;;;5011320;28;20576;-54
2021/03/01 11:26:20;;;;;;;6.20;4.68;;;7.10;71.40;;;;;;5019959;28;20034;-55
2021/03/01 11:28:46;;;;;;;5.90;4.97;;;7.10;71.40;;;;;;5010182;28;20022;-55
2021/03/01 11:31:12;;;;;;;6.22;4.85;;;7.20;71.20;;;;;;5007794;28;20129;-54
2021/03/01 11:33:39;;;;;;;5.78;5.18;;;7.20;71.10;;;;;;5007926;28;20473;-53
2021/03/01 11:36:06;;;;;;;6.10;5.40;;;7.20;71.30;;;;;;5014860;28;20658;-52
2021/03/01 11:38:32;;;;;;;6.00;5.05;;;7.30;71.00;;;;;;5008696;28;20029;-54
2021/03/01 11:41:00;;;;;;;6.35;5.47;;;7.30;70.90;;;;;;5013887;28;20033;-52
2021/03/01 11:43:26;;;;;;;5.78;5.18;;;7.30;70.70;;;;;;5021539;28;20037;-52
2021/03/01 11:45:52;;;;;;;6.35;5.18;;;7.40;70.60;;;;;;5016059;28;20053;-55
2021/03/01 11:48:18;;;;;;;7.15;5.22;;;7.40;70.50;;;;;;5016357;28;20413;-55
2021/03/01 11:50:46;;;;;;;8.07;5.32;;;7.40;70.30;;;;;;5017057;28;20040;-55
2021/03/01 11:53:14;;;;;;;8.82;6.60;;;7.40;70.20;;;;;;5011161;28;20030;-55
2021/03/01 11:55:40;;;;;;;9.45;6.03;;;7.40;70.00;;;;;;5009173;28;20409;-55
2021/03/01 11:58:06;;;;;;;8.70;6.03;;;7.40;70.20;;;;;;5013094;28;20029;-55
2021/03/01 12:00:32;;;;;;;9.90;6.15;;;7.40;70.00;;;;;;5014403;28;20445;-54
2021/03/01 12:02:58;;;;;;;8.82;5.82;;;7.40;69.80;;;;;;5006205;28;20112;-54
2021/03/01 12:05:24;;;;;;;7.35;5.60;;;7.30;69.70;;;;;;5011688;28;20041;-54
2021/03/01 12:07:49;;;;;;;6.85;5.07;;;7.30;69.80;;;;;;5011708;28;20087;-55
2021/03/01 12:10:15;;;;;;;6.38;5.18;;;7.30;69.70;;;;;;5004750;28;20120;-55
2021/03/01 12:12:41;;;;;;;7.20;5.43;;;7.30;69.60;;;;;;5010161;28;20500;-53
2021/03/01 12:15:08;;;;;;;5.57;4.57;;;7.20;69.30;;;;;;4999956;28;20025;-53
2021/03/01 12:17:35;;;;;;;5.70;4.90;;;7.20;69.40;;;;;;5018500;28;20470;-55
2021/03/01 12:20:02;;;;;;;7.07;4.40;;;7.10;69.50;;;;;;5010859;28;20056;-55
2021/03/01 12:22:28;;;;;;;5.35;4.38;;;7.10;69.50;;;;;;5010779;28;20044;-57
2021/03/01 12:24:54;;;;;;;5.35;4.53;;;7.00;70.00;;;;;;5011468;28;20030;-55
2021/03/01 12:27:19;;;;;;;6.43;4.50;;;7.00;69.40;;;;;;5015234;28;20042;-56
2021/03/01 12:29:45;;;;;;;4.55;3.80;;;6.90;69.30;;;;;;5005963;28;20116;-51
2021/03/01 12:32:11;;;;;;;6.50;4.65;;;6.80;69.40;;;;;;5015945;28;20030;-54
2021/03/01 12:34:41;;;;;;;5.70;4.65;;;6.70;69.40;;;;;;5007238;28;20113;-56
2021/03/01 12:37:10;;;;;;;4.95;4.00;;;6.70;69.20;;;;;;5011301;28;20358;-55
2021/03/01 12:39:37;;;;;;;4.53;4.13;;;6.60;69.40;;;;;;5008763;28;20361;-54
2021/03/01 12:42:05;;;;;;;4.90;4.00;;;6.50;69.40;;;;;;5009395;28;20041;-55
2021/03/01 12:44:32;;;;;;;7.28;4.13;;;6.40;69.60;;;;;;5006637;28;20033;-52
2021/03/01 12:46:57;;;;;;;5.28;4.28;;;6.20;69.70;;;;;;5007841;28;20087;-55
2021/03/01 12:49:23;;;;;;;6.35;4.57;;;6.10;70.00;;;;;;5007246;28;20050;-56
2021/03/01 12:51:50;;;;;;;5.47;4.53;;;6.00;70.30;;;;;;5004487;28;20393;-56
2021/03/01 12:54:16;;;;;;;5.40;4.50;;;6.00;70.60;;;;;;5010954;28;20025;-55
2021/03/01 12:56:42;;;;;;;8.18;4.93;;;6.00;70.80;;;;;;5005153;28;20030;-54
2021/03/01 12:59:08;;;;;;;6.43;4.88;;;6.00;70.80;;;;;;5005659;28;20026;-54
2021/03/01 13:01:34;;;;;;;6.82;5.28;;;6.00;70.80;;;;;;5008609;28;20033;-56
2021/03/01 13:04:00;;;;;;;7.30;5.72;;;5.90;71.00;;;;;;5007569;28;20041;-56